Time;durP1;ratioP1;P1;durP2;ratioP2;P2;SDS_P1;SDS_P2;PMS_P1;PMS_P2;Temp;Humidity;BMP_temperature;BMP_pressure;BME280_temperature;BME280_humidity;BME280_pressure;Samples;Min_cycle;Max_cycle;Signal;HPM_P1;HPM_P2
2022/07/09 00:05:29;;;;;;;1.15;0.82;;;20.50;62.70;;;;;;20981222;28;20597;-72
2022/07/09 00:15:30;;;;;;;3.08;1.33;;;20.50;62.60;;;;;;20986741;28;20516;-71
2022/07/09 00:25:30;;;;;;;3.67;1.27;;;20.60;62.60;;;;;;21000277;28;20036;-71
2022/07/09 00:35:31;;;;;;;5.13;1.42;;;20.50;62.50;;;;;;20976601;28;20463;-70
2022/07/09 00:55:48;;;;;;;3.80;1.10;;;20.40;62.50;;;;;;20634624;23;20108;-71
2022/07/09 01:05:49;;;;;;;7.33;1.97;;;20.40;62.50;;;;;;20587154;28;20458;-71
2022/07/09 01:15:49;;;;;;;2.05;1.02;;;20.30;62.50;;;;;;20593333;28;20081;-71
2022/07/09 01:25:50;;;;;;;3.30;1.08;;;20.30;62.50;;;;;;20577264;28;20084;-71
2022/07/09 01:35:50;;;;;;;2.67;1.30;;;20.30;62.40;;;;;;20593562;28;20038;-71
2022/07/09 01:45:51;;;;;;;6.60;1.55;;;20.20;62.40;;;;;;20570867;28;20342;-73
2022/07/09 01:55:52;;;;;;;6.68;1.45;;;20.20;62.40;;;;;;20601823;28;20393;-71
2022/07/09 02:05:52;;;;;;;5.13;1.70;;;20.20;62.50;;;;;;20591113;28;20042;-72
2022/07/09 02:15:53;;;;;;;3.70;1.25;;;20.10;62.40;;;;;;20575134;28;20133;-70
2022/07/09 02:25:54;;;;;;;2.08;1.20;;;20.10;62.40;;;;;;20568242;28;20436;-75
2022/07/09 02:35:55;;;;;;;3.97;1.17;;;20.10;62.50;;;;;;20605662;28;20046;-73
2022/07/09 02:45:55;;;;;;;4.65;1.48;;;20.10;62.50;;;;;;20589268;28;20153;-73
2022/07/09 02:55:56;;;;;;;4.40;1.77;;;20.10;62.60;;;;;;20589910;28;20480;-70
2022/07/09 03:05:57;;;;;;;9.27;1.57;;;20.00;62.60;;;;;;20596599;28;20046;-70
2022/07/09 03:15:57;;;;;;;4.90;1.97;;;20.00;62.60;;;;;;20609697;28;20388;-70
2022/07/09 03:25:58;;;;;;;4.85;1.60;;;20.00;62.70;;;;;;20613457;28;20835;-74
2022/07/09 03:35:58;;;;;;;3.50;1.63;;;19.90;62.80;;;;;;20586256;28;20560;-72
2022/07/09 03:45:59;;;;;;;5.93;1.83;;;19.90;63.00;;;;;;20583340;28;20026;-71
2022/07/09 03:55:59;;;;;;;5.93;2.15;;;19.90;63.10;;;;;;20599110;28;20142;-71
2022/07/09 04:06:00;;;;;;;8.57;1.60;;;19.80;63.20;;;;;;20616778;28;20034;-72
2022/07/09 04:16:00;;;;;;;3.43;1.67;;;19.80;63.30;;;;;;20598834;28;20084;-71
2022/07/09 04:26:01;;;;;;;13.07;2.10;;;19.80;63.50;;;;;;20560198;28;20807;-70
2022/07/09 04:36:02;;;;;;;6.03;2.03;;;19.80;63.70;;;;;;20628119;28;20043;-70
2022/07/09 04:46:02;;;;;;;3.35;1.67;;;19.80;63.90;;;;;;20611238;28;20103;-71
2022/07/09 04:56:03;;;;;;;3.97;1.80;;;19.70;64.00;;;;;;20583193;28;20051;-70
2022/07/09 05:06:04;;;;;;;5.47;1.98;;;19.70;64.20;;;;;;20589451;28;20532;-70
2022/07/09 05:16:05;;;;;;;3.75;1.55;;;19.70;64.40;;;;;;20599672;28;20047;-71
2022/07/09 05:26:05;;;;;;;4.85;1.80;;;19.70;64.80;;;;;;20589774;28;20130;-73
2022/07/09 05:36:06;;;;;;;3.53;1.55;;;19.70;65.00;;;;;;20593971;28;20039;-72
2022/07/09 05:46:06;;;;;;;7.22;1.60;;;19.70;65.00;;;;;;20608515;28;20404;-72
2022/07/09 05:56:07;;;;;;;3.53;1.65;;;19.80;65.00;;;;;;20598833;28;20035;-71
2022/07/09 06:06:08;;;;;;;4.18;1.27;;;19.80;65.00;;;;;;20599943;28;20057;-71
2022/07/09 06:16:08;;;;;;;9.13;1.92;;;19.80;65.00;;;;;;20603723;28;20074;-73
2022/07/09 06:26:09;;;;;;;3.47;1.27;;;19.80;65.00;;;;;;20620459;28;20026;-70
2022/07/09 06:36:09;;;;;;;3.70;1.50;;;19.80;65.40;;;;;;20581550;28;20129;-71
2022/07/09 06:46:10;;;;;;;3.22;1.50;;;19.90;65.20;;;;;;20565042;28;20031;-74
2022/07/09 06:56:10;;;;;;;3.53;1.63;;;19.90;65.90;;;;;;20592710;28;20057;-72
2022/07/09 07:06:11;;;;;;;7.00;1.70;;;20.00;65.20;;;;;;20593274;28;20062;-71
2022/07/09 07:16:12;;;;;;;2.45;1.17;;;20.00;65.20;;;;;;20614010;28;20035;-69
2022/07/09 07:26:12;;;;;;;3.05;1.20;;;20.00;65.20;;;;;;20600718;28;20035;-69
2022/07/09 07:36:13;;;;;;;6.55;1.15;;;20.10;65.40;;;;;;20601243;28;20121;-70
2022/07/09 07:46:13;;;;;;;4.35;1.17;;;20.10;65.40;;;;;;20618447;28;20456;-69
2022/07/09 07:56:14;;;;;;;3.10;1.10;;;20.10;65.40;;;;;;20573479;28;20062;-71
2022/07/09 08:06:14;;;;;;;1.77;0.80;;;20.20;65.30;;;;;;20605939;28;21108;-70
2022/07/09 08:16:15;;;;;;;2.90;1.10;;;20.20;65.10;;;;;;20598964;28;20699;-69
2022/07/09 08:26:16;;;;;;;5.00;1.42;;;20.20;65.00;;;;;;20631112;28;20133;-68
2022/07/09 08:36:16;;;;;;;4.50;0.90;;;20.20;65.00;;;;;;20594102;28;20049;-71
2022/07/09 08:46:18;;;;;;;2.60;1.20;;;20.10;64.80;;;;;;20615606;28;20113;-70
2022/07/09 08:56:18;;;;;;;3.97;1.10;;;20.10;65.00;;;;;;20598095;28;20035;-69
2022/07/09 09:06:21;;;;;;;2.75;0.98;;;20.10;65.00;;;;;;20601676;28;20055;-72
2022/07/09 09:16:22;;;;;;;2.80;0.63;;;20.20;65.00;;;;;;20624201;28;20612;-70
2022/07/09 09:26:24;;;;;;;4.03;1.02;;;20.20;65.00;;;;;;20585968;28;20035;-71
2022/07/09 09:36:52;;;;;;;1.08;0.65;;;20.20;65.10;;;;;;20607597;28;20119;-77
2022/07/09 09:46:53;;;;;;;2.33;0.90;;;20.20;65.30;;;;;;20613004;28;20050;-75
2022/07/09 09:56:54;;;;;;;1.10;0.77;;;20.30;65.30;;;;;;20560594;28;20030;-74
2022/07/09 10:06:54;;;;;;;1.25;0.77;;;20.30;65.30;;;;;;20618335;28;20061;-71
2022/07/09 10:16:55;;;;;;;1.30;1.05;;;20.40;65.30;;;;;;20599720;28;20041;-72
2022/07/09 10:27:04;;;;;;;1.73;0.80;;;20.40;65.30;;;;;;20620248;28;20118;-70
2022/07/09 10:37:05;;;;;;;7.97;2.20;;;20.40;65.20;;;;;;20598315;28;20413;-70
2022/07/09 10:47:05;;;;;;;1.60;1.15;;;20.40;65.30;;;;;;20601744;28;20039;-70
2022/07/09 10:57:06;;;;;;;3.22;1.20;;;20.40;65.10;;;;;;20610101;28;20045;-69
2022/07/09 11:07:07;;;;;;;2.38;1.27;;;20.50;64.80;;;;;;20601559;28;20034;-69
2022/07/09 11:17:07;;;;;;;2.42;0.95;;;20.50;64.40;;;;;;20599408;28;20031;-69
2022/07/09 11:27:08;;;;;;;4.78;0.98;;;20.50;64.20;;;;;;20593952;28;20034;-69
2022/07/09 11:37:09;;;;;;;3.45;1.10;;;20.50;64.10;;;;;;20580126;28;20070;-70
2022/07/09 11:47:11;;;;;;;2.97;0.95;;;20.50;63.90;;;;;;20616380;28;20121;-70
2022/07/09 11:57:23;;;;;;;2.35;0.80;;;20.60;64.00;;;;;;20575170;28;20125;-73
2022/07/09 12:07:24;;;;;;;1.70;0.70;;;20.70;64.20;;;;;;20598521;28;20429;-73
2022/07/09 12:17:26;;;;;;;1.27;0.88;;;20.70;64.00;;;;;;20588643;28;20039;-71
2022/07/09 12:27:27;;;;;;;1.27;0.60;;;20.70;63.50;;;;;;20594515;28;20122;-73
2022/07/09 12:37:27;;;;;;;1.63;0.93;;;20.70;63.40;;;;;;20599375;28;20181;-71
2022/07/09 12:47:28;;;;;;;1.27;0.87;;;20.70;63.50;;;;;;20608147;28;20502;-73
2022/07/09 12:57:28;;;;;;;1.77;1.00;;;20.70;64.30;;;;;;20575970;28;20389;-68
2022/07/09 13:07:29;;;;;;;3.97;0.73;;;20.70;64.90;;;;;;20594504;28;20042;-75
2022/07/09 13:17:30;;;;;;;1.73;0.70;;;20.80;65.10;;;;;;20593682;28;20044;-74
2022/07/09 13:27:30;;;;;;;0.73;0.55;;;20.80;65.10;;;;;;20571775;28;20096;-72
2022/07/09 13:37:33;;;;;;;1.33;0.57;;;20.80;64.40;;;;;;20587314;28;20034;-74
2022/07/09 13:47:33;;;;;;;1.52;0.60;;;20.90;63.30;;;;;;20607585;28;20497;-73
2022/07/09 13:57:34;;;;;;;0.73;0.40;;;21.00;62.60;;;;;;20599038;28;20070;-73
2022/07/09 14:07:35;;;;;;;3.35;0.57;;;21.10;62.40;;;;;;20606176;28;20425;-73
2022/07/09 14:17:36;;;;;;;2.70;0.68;;;21.10;62.60;;;;;;20620357;28;20057;-75
2022/07/09 14:27:36;;;;;;;1.27;0.55;;;21.20;62.80;;;;;;20616989;28;20030;-73
2022/07/09 14:37:37;;;;;;;2.17;0.40;;;21.20;62.70;;;;;;20604151;28;20034;-74
2022/07/09 14:47:38;;;;;;;3.97;0.60;;;21.20;62.70;;;;;;20587293;28;20743;-72
2022/07/09 14:57:38;;;;;;;1.17;0.70;;;21.30;62.70;;;;;;20594445;28;20043;-73
2022/07/09 15:07:39;;;;;;;1.23;0.70;;;21.30;62.70;;;;;;20597108;28;20066;-70
2022/07/09 15:17:40;;;;;;;0.93;0.50;;;21.30;62.90;;;;;;20598037;28;20042;-73
2022/07/09 15:27:41;;;;;;;5.72;1.08;;;21.20;65.00;;;;;;20586591;28;20106;-73
2022/07/09 15:37:41;;;;;;;1.70;0.73;;;21.20;66.90;;;;;;20565274;28;20786;-73
2022/07/09 15:47:42;;;;;;;3.23;0.90;;;21.20;67.70;;;;;;20561161;28;20515;-72
2022/07/09 15:57:43;;;;;;;1.45;0.60;;;21.30;67.60;;;;;;20607698;28;20046;-74
2022/07/09 16:07:43;;;;;;;1.52;0.68;;;21.40;67.60;;;;;;20575037;28;20043;-73
2022/07/09 16:17:44;;;;;;;1.17;0.50;;;21.50;67.40;;;;;;20582781;28;20046;-68
2022/07/09 16:27:46;;;;;;;1.63;0.30;;;21.60;66.80;;;;;;20607856;28;20432;-69
2022/07/09 16:37:46;;;;;;;3.13;0.47;;;21.70;65.90;;;;;;20611932;28;20393;-70
2022/07/09 16:47:47;;;;;;;1.48;0.60;;;21.80;65.30;;;;;;20597131;28;20099;-70
2022/07/09 16:57:49;;;;;;;2.92;0.73;;;21.80;64.30;;;;;;20614785;28;20093;-72
2022/07/09 17:07:49;;;;;;;2.83;0.95;;;21.90;63.40;;;;;;20574174;28;20038;-71
2022/07/09 17:17:50;;;;;;;1.85;0.55;;;21.90;62.80;;;;;;20569662;28;20057;-72
2022/07/09 17:27:51;;;;;;;2.15;0.65;;;21.90;62.20;;;;;;20547035;28;20560;-71
2022/07/09 17:37:52;;;;;;;0.90;0.57;;;21.90;61.90;;;;;;20532922;28;20050;-71
2022/07/09 17:47:52;;;;;;;1.38;0.50;;;21.80;61.50;;;;;;20566827;28;20071;-71
2022/07/09 17:57:57;;;;;;;1.80;0.52;;;21.70;60.90;;;;;;20542415;28;20061;-72
2022/07/09 18:07:59;;;;;;;7.32;1.23;;;21.70;60.00;;;;;;20565766;28;20034;-71
2022/07/09 18:18:00;;;;;;;3.30;0.77;;;21.60;59.60;;;;;;20565436;28;20393;-71
2022/07/09 18:28:03;;;;;;;1.35;0.57;;;21.60;59.40;;;;;;20564057;28;20035;-72
2022/07/09 18:38:03;;;;;;;4.63;0.50;;;21.50;59.10;;;;;;20548834;28;20421;-71
2022/07/09 18:48:04;;;;;;;2.10;0.60;;;21.40;58.90;;;;;;20577834;28;20100;-70
2022/07/09 18:58:05;;;;;;;2.45;0.52;;;21.40;58.70;;;;;;20587182;28;20045;-72
2022/07/09 19:08:05;;;;;;;2.42;0.40;;;21.40;58.40;;;;;;20614951;28;20050;-72
2022/07/09 19:18:06;;;;;;;1.98;0.52;;;21.30;58.20;;;;;;20585723;28;20045;-71
2022/07/09 19:28:06;;;;;;;1.42;0.60;;;21.30;58.00;;;;;;20566710;28;20126;-74
2022/07/09 19:38:07;;;;;;;1.67;0.40;;;21.30;57.90;;;;;;20612448;28;20034;-72
2022/07/09 19:48:07;;;;;;;0.95;0.32;;;21.20;57.60;;;;;;20592851;28;20045;-72
2022/07/09 19:58:08;;;;;;;3.45;0.70;;;21.10;57.50;;;;;;20605606;28;20042;-73
2022/07/09 20:08:08;;;;;;;3.60;0.63;;;21.10;57.40;;;;;;20609633;28;20037;-72
2022/07/09 20:18:10;;;;;;;2.90;0.57;;;21.00;57.20;;;;;;20612000;28;20114;-71
2022/07/09 20:28:11;;;;;;;4.95;0.50;;;21.00;57.10;;;;;;20598021;28;20460;-73
2022/07/09 20:38:11;;;;;;;1.17;0.40;;;20.90;56.80;;;;;;20611366;28;20050;-72
2022/07/09 20:48:12;;;;;;;2.92;0.60;;;21.00;56.70;;;;;;20626959;28;20039;-72
2022/07/09 20:58:12;;;;;;;1.23;0.40;;;20.90;56.60;;;;;;20596956;28;20039;-74
2022/07/09 21:08:13;;;;;;;1.80;0.40;;;20.80;56.40;;;;;;20616372;28;20121;-74
2022/07/09 21:28:35;;;;;;;2.13;0.45;;;20.80;56.20;;;;;;20614097;28;20477;-72
2022/07/09 21:38:35;;;;;;;1.15;0.40;;;20.80;56.30;;;;;;20607166;28;20058;-72
2022/07/09 21:48:36;;;;;;;3.78;0.85;;;20.70;56.30;;;;;;20615702;28;20101;-74
2022/07/09 21:58:36;;;;;;;3.22;0.80;;;20.70;56.30;;;;;;20599870;28;20125;-73
2022/07/09 22:08:37;;;;;;;1.33;0.40;;;20.70;56.30;;;;;;20600829;28;20046;-72
2022/07/09 22:18:38;;;;;;;2.55;0.63;;;20.60;56.20;;;;;;20604375;28;20035;-72
2022/07/09 22:28:38;;;;;;;1.43;0.50;;;20.60;56.20;;;;;;20611967;28;20058;-73
2022/07/09 22:38:39;;;;;;;1.55;0.40;;;20.60;56.10;;;;;;20589321;28;20717;-71
2022/07/09 22:48:39;;;;;;;1.92;0.77;;;20.60;56.10;;;;;;20579611;28;20453;-72
2022/07/09 22:58:40;;;;;;;3.47;0.68;;;20.50;55.90;;;;;;20595197;28;20508;-74
2022/07/09 23:08:55;;;;;;;1.50;0.50;;;20.50;55.80;;;;;;20601563;28;20118;-73
2022/07/09 23:19:00;;;;;;;2.45;0.80;;;20.50;55.70;;;;;;20590084;28;20377;-71
2022/07/09 23:29:01;;;;;;;3.75;0.77;;;20.50;55.80;;;;;;20586972;28;20042;-72
2022/07/09 23:39:01;;;;;;;1.13;0.30;;;20.40;55.80;;;;;;20612240;28;20034;-72
2022/07/09 23:49:02;;;;;;;1.30;0.50;;;20.40;55.90;;;;;;20553915;28;20129;-73
2022/07/09 23:59:03;;;;;;;4.38;0.70;;;20.40;56.00;;;;;;20602629;28;20039;-72
